White Elm, Iowa
Current Conditions -  °F | °C
As of 1:15 PM on Saturday 20 Dec 2014 (Local Time) from KFFL Reporting Station
Haze Haze  
Wind Chill: 28°   Ceiling: 500
Heat Index: 34°   Visibility: 2.5mi
Dew Point: 32°   Wind: 7mph
Humidity: 93%   Direction: 150°SSE
Pressure: 30.17"   Gusts: NA
Location:  40.8736°N, 92.1109°W
Report Text: KFFL 201915Z AUTO 15006KT 2 1/2SM BR OVC005 01/00 A3017 RMK AO2
Loading
Personal Weather Stations






























Interactive Weather Map New forecast layout! Learn more

10-Day Weather Forecast

Advertisements
Track Severe Weather on mobile